Time;durP1;ratioP1;P1;durP2;ratioP2;P2;SDS_P1;SDS_P2;PMS_P1;PMS_P2;Temp;Humidity;BMP_temperature;BMP_pressure;BME280_temperature;BME280_humidity;BME280_pressure;Samples;Min_cycle;Max_cycle;Signal;HPM_P1;HPM_P2
2023/08/22 00:00:32;;;;;;;10.55;9.65;;;;;;;23.62;61.41;95197.31;5055385;28;20598;-66
2023/08/22 00:03:00;;;;;;;10.02;9.23;;;;;;;23.61;61.26;95204.19;5055338;28;20209;-66
2023/08/22 00:05:27;;;;;;;10.10;9.25;;;;;;;23.60;61.28;95201.78;5055173;28;20542;-66
2023/08/22 00:07:56;;;;;;;10.45;9.55;;;;;;;23.61;61.17;95209.03;5071817;28;20194;-66
2023/08/22 00:10:23;;;;;;;10.52;9.63;;;;;;;23.61;61.00;95215.44;5055459;28;20189;-66
2023/08/22 00:12:50;;;;;;;10.15;9.25;;;;;;;23.61;60.96;95218.28;5055400;28;20213;-66
2023/08/22 00:15:18;;;;;;;10.23;9.43;;;;;;;23.60;61.52;95215.88;5072108;28;20198;-66
2023/08/22 00:17:50;;;;;;;10.30;9.48;;;;;;;23.59;61.63;95217.91;5054903;28;20190;-66
2023/08/22 00:20:18;;;;;;;10.07;9.18;;;;;;;23.58;61.48;95221.94;5055291;28;20194;-66
2023/08/22 00:22:47;;;;;;;10.43;9.52;;;;;;;23.60;61.53;95213.84;5055252;28;20706;-67
2023/08/22 00:25:15;;;;;;;10.27;9.38;;;;;;;23.59;61.62;95220.72;5055996;28;20182;-66
2023/08/22 00:27:45;;;;;;;10.38;9.52;;;;;;;23.58;61.73;95215.53;5071627;28;20205;-66
2023/08/22 00:30:13;;;;;;;10.07;9.18;;;;;;;23.58;61.58;95216.31;5054729;28;20202;-67
2023/08/22 00:32:41;;;;;;;10.13;9.23;;;;;;;23.58;61.85;95207.09;5055636;28;20186;-68
2023/08/22 00:35:11;;;;;;;11.18;10.07;;;;;;;23.55;61.91;95203.09;5054623;28;20205;-67
2023/08/22 00:37:39;;;;;;;9.75;9.00;;;;;;;23.54;61.89;95207.94;5054648;28;20622;-67
2023/08/22 00:40:09;;;;;;;10.40;9.60;;;;;;;23.54;61.88;95198.72;5054930;28;20237;-67
2023/08/22 00:42:36;;;;;;;10.82;9.73;;;;;;;23.53;62.12;95202.75;5054981;28;20197;-66
2023/08/22 00:45:06;;;;;;;10.63;9.73;;;;;;;23.54;62.08;95201.53;5054994;28;20613;-66
2023/08/22 00:47:36;;;;;;;10.70;9.90;;;;;;;23.55;62.01;95197.47;5054814;28;20212;-66
2023/08/22 00:50:04;;;;;;;9.95;9.10;;;;;;;23.54;62.00;95202.31;5054919;28;20202;-66
2023/08/22 00:52:36;;;;;;;10.32;9.52;;;;;;;23.51;62.20;95197.56;5054850;28;20204;-66
2023/08/22 00:55:04;;;;;;;10.20;9.40;;;;;;;23.47;62.37;95204.50;5054403;28;20194;-66
2023/08/22 00:57:32;;;;;;;10.25;9.35;;;;;;;23.44;62.45;95208.16;5054222;28;20625;-66
2023/08/22 01:00:05;;;;;;;11.13;10.13;;;;;;;23.44;62.59;95208.16;5054171;28;20221;-66
2023/08/22 01:02:33;;;;;;;10.80;9.90;;;;;;;23.37;62.68;95203.47;5053881;28;20210;-66
2023/08/22 01:05:01;;;;;;;10.65;9.75;;;;;;;23.33;62.54;95204.78;5054744;28;20538;-66
2023/08/22 01:07:31;;;;;;;10.30;9.40;;;;;;;23.27;62.80;95207.28;5071133;28;20193;-66
2023/08/22 01:10:04;;;;;;;10.73;9.82;;;;;;;23.24;62.74;95205.34;5054034;28;20206;-66
2023/08/22 01:12:39;;;;;;;10.25;9.45;;;;;;;23.22;62.79;95197.34;5054331;28;20205;-66
2023/08/22 01:15:14;;;;;;;10.27;9.38;;;;;;;23.22;62.85;95202.19;5054524;28;20553;-66
2023/08/22 01:17:43;;;;;;;10.60;9.80;;;;;;;23.21;62.72;95209.03;5054262;28;20193;-66
2023/08/22 01:20:12;;;;;;;10.95;10.00;;;;;;;23.19;62.77;95208.66;5054294;28;20224;-66
2023/08/22 01:22:43;;;;;;;11.05;10.05;;;;;;;23.16;62.88;95212.34;5055289;28;20614;-66
2023/08/22 01:25:11;;;;;;;11.30;10.23;;;;;;;23.13;62.85;95216.00;5054524;28;20201;-66
2023/08/22 01:27:48;;;;;;;11.07;10.05;;;;;;;23.11;62.88;95210.81;5054224;28;20193;-66
2023/08/22 01:30:22;;;;;;;10.88;9.98;;;;;;;23.08;62.75;95208.06;5070940;28;20209;-66
2023/08/22 01:32:54;;;;;;;10.57;9.68;;;;;;;23.05;62.53;95207.69;5054050;28;20552;-66
2023/08/22 01:35:23;;;;;;;11.38;10.27;;;;;;;23.05;62.86;95207.69;5053972;28;20201;-66
2023/08/22 01:37:59;;;;;;;10.82;9.77;;;;;;;23.06;62.89;95209.31;5054188;28;20202;-66
2023/08/22 01:40:28;;;;;;;11.38;10.25;;;;;;;23.06;62.78;95212.13;5053507;28;20741;-65
2023/08/22 01:42:57;;;;;;;10.23;9.23;;;;;;;23.05;62.88;95212.53;5055020;28;20194;-65
2023/08/22 01:45:26;;;;;;;11.32;10.32;;;;;;;23.00;63.08;95213.03;5054140;28;20266;-65
2023/08/22 01:47:53;;;;;;;11.30;10.30;;;;;;;22.98;63.08;95207.03;5055485;28;20193;-65
2023/08/22 01:50:23;;;;;;;11.25;10.00;;;;;;;22.97;63.28;95213.91;5054248;28;20202;-65
2023/08/22 01:52:57;;;;;;;10.48;9.50;;;;;;;22.94;63.31;95217.56;5053908;28;20205;-66
2023/08/22 01:55:24;;;;;;;11.10;10.00;;;;;;;22.90;63.21;95219.63;5053728;28;20237;-66
2023/08/22 01:57:53;;;;;;;10.43;9.52;;;;;;;22.87;63.42;95214.84;5054053;28;20194;-66
2023/08/22 02:00:21;;;;;;;10.90;9.90;;;;;;;22.84;63.73;95216.53;5070313;28;20221;-66
2023/08/22 02:02:48;;;;;;;12.27;10.02;;;;;;;22.85;63.38;95218.09;5053990;28;20201;-66
2023/08/22 02:05:17;;;;;;;10.93;9.90;;;;;;;22.83;63.52;95210.09;5053763;28;20213;-66
2023/08/22 02:07:46;;;;;;;10.98;9.98;;;;;;;22.80;63.73;95208.16;5053824;28;20292;-67
2023/08/22 02:10:16;;;;;;;11.25;10.25;;;;;;;22.75;63.74;95214.25;5070622;28;20201;-67
2023/08/22 02:12:43;;;;;;;10.95;10.00;;;;;;;22.75;63.93;95207.84;5054165;28;20201;-67
2023/08/22 02:15:15;;;;;;;10.75;9.80;;;;;;;22.72;63.70;95209.47;5056434;28;20194;-66
2023/08/22 02:17:46;;;;;;;13.82;10.90;;;;;;;22.73;63.41;95211.09;5057541;28;20201;-66
2023/08/22 02:20:17;;;;;;;11.32;10.23;;;;;;;22.73;63.52;95210.28;5057603;28;20225;-66
2023/08/22 02:22:45;;;;;;;11.40;10.38;;;;;;;22.71;63.61;95210.72;5057478;28;20212;-66
2023/08/22 02:25:18;;;;;;;10.55;9.65;;;;;;;22.67;63.65;95210.00;5057286;28;20208;-66
2023/08/22 02:27:46;;;;;;;10.32;9.45;;;;;;;22.66;63.47;95208.41;5057038;28;20545;-66
2023/08/22 02:30:15;;;;;;;11.20;10.30;;;;;;;22.65;63.65;95215.22;5057556;28;20205;-66
2023/08/22 02:32:43;;;;;;;11.68;10.60;;;;;;;22.62;63.74;95209.66;5057512;28;20194;-66
2023/08/22 02:35:14;;;;;;;10.95;10.05;;;;;;;22.55;63.79;95208.59;5057044;28;20194;-66
2023/08/22 02:37:44;;;;;;;11.20;10.18;;;;;;;22.51;64.03;95215.47;5057128;28;20190;-66
2023/08/22 02:40:13;;;;;;;11.25;10.23;;;;;;;22.48;64.12;95210.72;5057175;28;20226;-66
2023/08/22 02:42:42;;;;;;;10.85;9.75;;;;;;;22.49;64.07;95213.09;5057163;28;20205;-66
2023/08/22 02:45:12;;;;;;;11.35;10.45;;;;;;;22.48;64.32;95213.53;5057204;28;20182;-66
2023/08/22 02:47:42;;;;;;;11.63;10.73;;;;;;;22.43;64.40;95217.59;5056676;28;20198;-66
2023/08/22 02:50:10;;;;;;;11.00;9.90;;;;;;;22.39;64.49;95228.13;5056659;28;20206;-66
2023/08/22 02:52:38;;;;;;;11.77;10.55;;;;;;;22.40;64.25;95223.28;5056726;28;20198;-66
2023/08/22 02:55:07;;;;;;;11.88;10.73;;;;;;;22.40;64.40;95224.06;5056723;28;20205;-66
2023/08/22 02:57:35;;;;;;;11.55;10.60;;;;;;;22.34;64.62;95237.84;5056490;28;20190;-66
2023/08/22 03:00:07;;;;;;;11.70;10.70;;;;;;;22.32;64.61;95231.03;5056484;28;20226;-66
2023/08/22 03:02:36;;;;;;;11.07;10.07;;;;;;;22.32;64.51;95229.03;5057010;28;20630;-66
2023/08/22 03:05:06;;;;;;;11.75;10.65;;;;;;;22.29;64.65;95226.25;5056879;28;20220;-66
2023/08/22 03:07:34;;;;;;;11.10;10.10;;;;;;;22.29;64.86;95227.06;5073102;28;20197;-66
2023/08/22 03:10:04;;;;;;;11.52;10.43;;;;;;;22.25;64.83;95228.34;5056387;28;20506;-66
2023/08/22 03:12:32;;;;;;;12.27;10.57;;;;;;;22.23;64.94;95231.59;5057193;28;20205;-66
2023/08/22 03:15:02;;;;;;;12.07;10.98;;;;;;;22.23;64.75;95234.41;5056637;28;20201;-66
2023/08/22 03:17:31;;;;;;;11.68;10.65;;;;;;;22.23;64.62;95231.59;5056441;28;20206;-66
2023/08/22 03:20:04;;;;;;;11.50;10.48;;;;;;;22.23;64.89;95230.78;5056983;28;20213;-66
2023/08/22 03:22:34;;;;;;;11.30;10.30;;;;;;;22.19;64.84;95233.66;5056406;28;20255;-66
2023/08/22 03:25:04;;;;;;;11.98;10.82;;;;;;;22.18;65.19;95237.66;5055849;28;20202;-66
2023/08/22 03:27:31;;;;;;;12.20;10.90;;;;;;;22.17;65.13;95238.88;5055965;28;20267;-66
2023/08/22 03:30:02;;;;;;;12.30;11.20;;;;;;;22.18;65.24;95240.47;5056271;28;20630;-66
2023/08/22 03:32:31;;;;;;;11.45;10.55;;;;;;;22.20;65.22;95248.50;5056067;28;20248;-66
2023/08/22 03:35:07;;;;;;;12.52;11.43;;;;;;;22.19;64.99;95246.91;5056362;28;20229;-66
2023/08/22 03:37:34;;;;;;;12.95;11.75;;;;;;;22.16;64.83;95240.13;5055635;28;20228;-66
2023/08/22 03:40:02;;;;;;;11.80;10.70;;;;;;;22.10;64.74;95245.38;5056073;28;20233;-66
2023/08/22 03:42:32;;;;;;;12.23;10.88;;;;;;;22.10;64.95;95251.00;5056004;28;20194;-66
2023/08/22 03:45:01;;;;;;;12.13;11.15;;;;;;;22.09;65.07;95255.03;5055978;28;20277;-66
2023/08/22 03:47:35;;;;;;;12.77;11.52;;;;;;;22.05;65.37;95251.47;5055673;28;20292;-66
2023/08/22 03:50:08;;;;;;;11.98;10.93;;;;;;;22.01;65.32;95241.53;5055561;28;20190;-66
2023/08/22 03:52:36;;;;;;;12.50;11.50;;;;;;;22.02;65.64;95251.53;5055981;28;20201;-66
2023/08/22 03:55:08;;;;;;;11.32;10.30;;;;;;;22.00;65.60;95246.31;5055964;28;20546;-66
2023/08/22 03:57:38;;;;;;;13.60;12.43;;;;;;;22.00;65.70;95251.94;5055421;28;20198;-67
2023/08/22 04:00:10;;;;;;;12.35;11.07;;;;;;;21.99;65.80;95249.56;5055531;28;20217;-67
2023/08/22 04:02:40;;;;;;;13.18;12.00;;;;;;;22.01;65.76;95253.53;5055803;28;20233;-66
2023/08/22 04:05:14;;;;;;;13.52;12.27;;;;;;;22.02;66.01;95243.91;5055419;28;20277;-66
2023/08/22 04:07:44;;;;;;;12.55;11.40;;;;;;;22.02;65.76;95248.72;5055176;28;20198;-66
2023/08/22 04:10:12;;;;;;;12.82;11.50;;;;;;;22.02;66.21;95245.91;5055910;28;20251;-66
2023/08/22 04:12:40;;;;;;;13.05;11.75;;;;;;;22.03;66.34;95244.69;5055804;28;20206;-66
2023/08/22 04:15:10;;;;;;;13.85;12.52;;;;;;;22.02;66.27;95243.09;5055004;28;20539;-66
2023/08/22 04:17:42;;;;;;;12.95;11.75;;;;;;;22.03;66.10;95248.28;5055895;28;20181;-67
2023/08/22 04:20:15;;;;;;;16.33;12.15;;;;;;;22.06;66.13;95255.88;5054890;28;20225;-66
2023/08/22 04:22:43;;;;;;;14.07;12.48;;;;;;;22.07;65.92;95251.03;5055346;28;20192;-66
2023/08/22 04:25:14;;;;;;;15.05;12.35;;;;;;;22.03;66.16;95251.09;5055064;28;20198;-66
2023/08/22 04:27:42;;;;;;;13.60;12.18;;;;;;;22.04;65.97;95247.09;5055186;28;20200;-66
2023/08/22 04:30:10;;;;;;;14.32;12.85;;;;;;;22.07;66.50;95262.28;5055313;28;20205;-66
2023/08/22 04:32:41;;;;;;;14.25;12.77;;;;;;;22.10;66.33;95255.81;5055362;28;20223;-66
2023/08/22 04:35:11;;;;;;;13.57;12.18;;;;;;;22.10;66.27;95262.22;5055173;28;20295;-66
2023/08/22 04:37:42;;;;;;;18.38;12.82;;;;;;;22.09;66.08;95262.66;5054010;28;20209;-66
2023/08/22 04:40:11;;;;;;;13.25;11.95;;;;;;;22.11;66.62;95268.63;5054622;28;20233;-66
2023/08/22 04:42:38;;;;;;;13.48;12.07;;;;;;;22.13;66.56;95277.44;5055096;28;20201;-66
2023/08/22 04:45:08;;;;;;;14.18;12.60;;;;;;;22.14;66.66;95287.47;5054953;28;20216;-66
2023/08/22 04:47:38;;;;;;;13.32;11.95;;;;;;;22.17;66.43;95285.84;5054738;28;20190;-66
2023/08/22 04:50:07;;;;;;;14.80;11.50;;;;;;;22.19;66.20;95289.84;5054647;28;20193;-66
2023/08/22 04:52:36;;;;;;;14.15;12.55;;;;;;;22.21;66.53;95286.59;5054811;28;20204;-66
2023/08/22 04:55:09;;;;;;;13.82;12.43;;;;;;;22.20;66.61;95282.19;5054968;28;20200;-66
2023/08/22 04:57:38;;;;;;;14.48;13.00;;;;;;;22.21;66.70;95293.00;5054537;28;20212;-66
2023/08/22 05:00:10;;;;;;;15.52;13.68;;;;;;;22.24;66.66;95289.34;5054836;28;20233;-66
2023/08/22 05:02:39;;;;;;;15.10;13.35;;;;;;;22.25;66.53;95290.13;5054982;28;20197;-66
2023/08/22 05:05:10;;;;;;;15.52;13.93;;;;;;;22.28;66.44;95292.91;5054752;28;20198;-66
2023/08/22 05:07:38;;;;;;;15.32;13.77;;;;;;;22.33;66.18;95294.44;5055359;28;20205;-66
2023/08/22 05:10:10;;;;;;;16.30;14.63;;;;;;;22.37;66.35;95292.38;5054213;28;20209;-66
2023/08/22 05:12:38;;;;;;;15.48;14.02;;;;;;;22.41;66.53;95295.94;5054651;28;20190;-66
2023/08/22 05:15:09;;;;;;;16.15;14.32;;;;;;;22.41;66.48;95290.31;5054113;28;20190;-66
2023/08/22 05:17:38;;;;;;;14.38;12.98;;;;;;;22.40;66.99;95290.72;5053972;28;20224;-66
2023/08/22 05:20:12;;;;;;;14.55;13.15;;;;;;;22.39;66.80;95287.13;5054823;28;20214;-66
2023/08/22 05:22:41;;;;;;;14.48;13.05;;;;;;;22.41;66.49;95289.53;5054721;28;20197;-66
2023/08/22 05:25:18;;;;;;;16.08;14.40;;;;;;;22.44;66.45;95292.28;5054097;28;20522;-66
2023/08/22 05:27:48;;;;;;;14.70;13.27;;;;;;;22.46;66.62;95286.22;5053949;28;20198;-66
2023/08/22 05:30:16;;;;;;;13.80;12.48;;;;;;;22.47;66.61;95282.97;5054114;28;20209;-66
2023/08/22 05:32:46;;;;;;;14.52;13.40;;;;;;;22.52;66.32;95290.94;5053896;28;20208;-66
2023/08/22 05:35:15;;;;;;;14.32;13.13;;;;;;;22.57;65.89;95290.44;5054112;28;20271;-66
2023/08/22 05:37:43;;;;;;;14.07;12.77;;;;;;;22.63;66.14;95281.56;5054058;28;20625;-66
2023/08/22 05:40:15;;;;;;;13.80;12.55;;;;;;;22.67;66.17;95282.28;5053836;28;20238;-67
2023/08/22 05:42:43;;;;;;;13.88;12.60;;;;;;;22.69;65.92;95277.81;5054179;28;20198;-66
2023/08/22 05:45:11;;;;;;;13.68;12.18;;;;;;;22.72;65.49;95281.78;5054287;28;20289;-66
2023/08/22 05:47:39;;;;;;;14.35;12.95;;;;;;;22.75;65.51;95281.72;5054211;28;20193;-66
2023/08/22 05:50:10;;;;;;;13.35;12.05;;;;;;;22.79;65.42;95284.47;5058300;28;20194;-66
2023/08/22 05:52:39;;;;;;;13.27;12.13;;;;;;;22.85;65.45;95279.19;5058244;28;20192;-66
2023/08/22 05:55:08;;;;;;;13.70;12.43;;;;;;;22.89;65.38;95274.28;5057693;28;20202;-66
2023/08/22 05:57:42;;;;;;;13.60;12.27;;;;;;;22.94;65.38;95279.44;5057662;28;20205;-66
2023/08/22 06:00:11;;;;;;;13.48;12.18;;;;;;;22.98;65.14;95278.16;5074720;28;20228;-66
2023/08/22 06:02:43;;;;;;;14.13;12.82;;;;;;;23.01;65.50;95277.28;5058168;28;20514;-66
2023/08/22 06:05:12;;;;;;;14.77;13.40;;;;;;;23.04;65.04;95282.06;5057692;28;20205;-66
2023/08/22 06:07:41;;;;;;;14.65;13.30;;;;;;;23.11;64.88;95280.34;5057788;28;20220;-66
2023/08/22 06:10:08;;;;;;;14.23;13.02;;;;;;;23.12;65.01;95273.50;5057451;28;20207;-66
2023/08/22 06:12:43;;;;;;;14.52;13.23;;;;;;;23.16;64.64;95283.47;5057926;28;20189;-66
2023/08/22 06:15:14;;;;;;;13.70;12.50;;;;;;;23.19;65.03;95279.78;5041267;28;20254;-66
2023/08/22 06:17:42;;;;;;;13.43;12.20;;;;;;;23.25;65.01;95274.47;5057762;28;20198;-66
2023/08/22 06:20:11;;;;;;;14.32;13.02;;;;;;;23.28;65.12;95276.44;5057315;28;20225;-66
2023/08/22 06:22:42;;;;;;;14.40;13.00;;;;;;;23.33;65.39;95275.91;5057478;28;20193;-66
2023/08/22 06:25:10;;;;;;;13.95;12.68;;;;;;;23.34;65.26;95274.69;5057506;28;20193;-66
2023/08/22 06:27:42;;;;;;;14.50;13.10;;;;;;;23.35;64.87;95270.66;5057482;28;20190;-66
2023/08/22 06:30:12;;;;;;;14.07;12.77;;;;;;;23.36;65.04;95271.47;5057261;28;20213;-66
2023/08/22 06:32:40;;;;;;;13.68;12.35;;;;;;;23.39;64.45;95274.19;5055332;28;20201;-66
2023/08/22 06:35:09;;;;;;;13.30;12.00;;;;;;;23.45;64.66;95274.47;5057041;28;20194;-66
2023/08/22 06:37:37;;;;;;;14.73;13.52;;;;;;;23.48;64.80;95282.06;5057325;28;20202;-66
2023/08/22 06:40:10;;;;;;;12.60;11.50;;;;;;;23.51;64.74;95269.94;5057044;28;20233;-66
2023/08/22 06:42:45;;;;;;;12.30;11.35;;;;;;;23.56;64.55;95275.06;5057393;28;20204;-66
2023/08/22 06:45:15;;;;;;;11.75;10.75;;;;;;;23.61;64.10;95271.75;5057238;28;20219;-67
2023/08/22 06:47:42;;;;;;;14.52;13.25;;;;;;;23.67;64.25;95266.44;5057978;28;20214;-67
2023/08/22 06:50:13;;;;;;;16.00;14.60;;;;;;;23.72;63.94;95275.19;5057536;28;20190;-66
2023/08/22 06:52:40;;;;;;;13.32;11.95;;;;;;;23.78;63.20;95267.81;5056829;28;20271;-66
2023/08/22 06:55:11;;;;;;;13.40;12.25;;;;;;;23.88;62.43;95273.66;5057148;28;20194;-66
2023/08/22 06:57:43;;;;;;;13.35;12.25;;;;;;;23.95;62.83;95265.84;5056569;28;20194;-66
2023/08/22 07:00:14;;;;;;;13.27;12.18;;;;;;;23.95;63.30;95263.00;5056793;28;20265;-66
2023/08/22 07:02:42;;;;;;;12.15;10.82;;;;;;;24.02;62.04;95267.72;5057075;28;20225;-66
2023/08/22 07:05:14;;;;;;;12.50;11.27;;;;;;;24.13;61.68;95268.25;5056547;28;20198;-67
2023/08/22 07:07:42;;;;;;;12.35;11.15;;;;;;;24.21;61.43;95258.41;5056702;28;20219;-65
2023/08/22 07:10:11;;;;;;;11.90;10.70;;;;;;;24.26;61.14;95263.53;5056750;28;20204;-66
2023/08/22 07:12:41;;;;;;;13.00;11.80;;;;;;;24.37;60.78;95262.50;5056999;28;20201;-65
2023/08/22 07:15:09;;;;;;;12.38;11.15;;;;;;;24.44;60.90;95256.72;5056614;28;20208;-65
2023/08/22 07:17:37;;;;;;;12.80;11.63;;;;;;;24.47;60.86;95259.47;5056682;28;20200;-65
2023/08/22 07:20:07;;;;;;;13.30;11.85;;;;;;;24.55;60.83;95259.28;5057102;28;20204;-65
2023/08/22 07:22:35;;;;;;;13.25;11.60;;;;;;;24.57;60.40;95254.78;5056434;28;20190;-65
2023/08/22 07:25:03;;;;;;;13.38;12.07;;;;;;;24.63;60.55;95257.88;5056217;28;20198;-65
2023/08/22 07:27:31;;;;;;;12.73;11.73;;;;;;;24.68;60.62;95263.00;5056030;28;20190;-65
2023/08/22 07:30:01;;;;;;;13.63;12.32;;;;;;;24.78;60.19;95259.13;5056706;28;20202;-65
2023/08/22 07:32:29;;;;;;;12.00;11.00;;;;;;;24.79;60.42;95255.06;5056138;28;20736;-65
2023/08/22 07:34:57;;;;;;;12.82;11.80;;;;;;;24.88;59.86;95246.78;5056189;28;20629;-65
2023/08/22 07:37:26;;;;;;;13.85;11.52;;;;;;;24.94;59.58;95249.84;5056235;28;20204;-65
2023/08/22 07:39:54;;;;;;;14.07;12.57;;;;;;;24.94;59.14;95253.44;5059064;28;20256;-65
2023/08/22 07:42:25;;;;;;;15.15;11.40;;;;;;;25.01;59.09;95249.66;5075822;28;20227;-65
2023/08/22 07:44:55;;;;;;;12.70;11.50;;;;;;;25.10;58.86;95249.03;5059350;28;20606;-65
2023/08/22 07:47:24;;;;;;;12.65;11.50;;;;;;;25.17;58.71;95252.50;5059100;28;20186;-65
2023/08/22 07:49:51;;;;;;;12.63;11.45;;;;;;;25.29;58.25;95248.16;5059106;28;20212;-65
2023/08/22 07:52:19;;;;;;;12.57;11.32;;;;;;;25.37;58.23;95245.91;5058830;28;20193;-65
2023/08/22 07:54:47;;;;;;;12.10;11.00;;;;;;;25.45;57.19;95242.47;5058924;28;20204;-65
2023/08/22 07:57:15;;;;;;;12.60;11.57;;;;;;;25.48;57.32;95249.22;5059013;28;20201;-65
2023/08/22 07:59:43;;;;;;;12.18;10.95;;;;;;;25.53;57.28;95253.53;5058663;28;20293;-65
2023/08/22 08:02:11;;;;;;;12.60;11.48;;;;;;;25.61;56.78;95244.44;5058991;28;20217;-65
2023/08/22 08:04:43;;;;;;;12.73;11.45;;;;;;;25.67;56.29;95247.47;5075700;28;20197;-65
2023/08/22 08:07:12;;;;;;;12.63;11.50;;;;;;;25.79;56.38;95243.16;5058971;28;20197;-65
2023/08/22 08:09:39;;;;;;;13.10;11.80;;;;;;;25.82;56.31;95243.06;5058602;28;20201;-65
2023/08/22 08:12:08;;;;;;;11.52;10.52;;;;;;;25.82;55.85;95240.22;5074474;28;20520;-66
2023/08/22 08:14:38;;;;;;;13.20;11.93;;;;;;;25.86;56.19;95240.13;5058512;28;20189;-65
2023/08/22 08:17:09;;;;;;;13.48;12.27;;;;;;;26.00;55.09;95247.38;5058474;28;20201;-65
2023/08/22 08:19:37;;;;;;;13.65;11.30;;;;;;;26.07;55.49;95239.50;5058638;28;20208;-65
2023/08/22 08:22:05;;;;;;;12.27;11.18;;;;;;;26.12;54.78;95240.97;5058438;28;20217;-66
2023/08/22 08:24:35;;;;;;;13.63;12.27;;;;;;;26.15;54.80;95235.19;5075451;28;20196;-65
2023/08/22 08:27:03;;;;;;;13.13;11.93;;;;;;;26.19;54.47;95245.59;5058620;28;20205;-65
2023/08/22 08:29:33;;;;;;;12.73;11.52;;;;;;;26.21;54.44;95240.28;5058243;28;20212;-65
2023/08/22 08:32:01;;;;;;;11.70;10.75;;;;;;;26.23;54.71;95241.41;5058670;28;20205;-65
2023/08/22 08:34:29;;;;;;;12.20;11.05;;;;;;;26.46;52.77;95242.31;5058556;28;20192;-65
2023/08/22 08:37:04;;;;;;;11.52;10.45;;;;;;;26.59;51.89;95248.81;5057997;28;20201;-65
2023/08/22 08:39:34;;;;;;;10.85;9.75;;;;;;;26.87;51.80;95245.03;5058134;28;20200;-65
2023/08/22 08:42:04;;;;;;;10.90;9.82;;;;;;;27.11;49.51;95234.13;5058039;28;20217;-65
2023/08/22 08:44:35;;;;;;;11.40;10.27;;;;;;;27.27;50.15;95238.84;5058628;28;20197;-65
2023/08/22 08:47:05;;;;;;;11.40;10.40;;;;;;;27.40;48.66;95238.78;5057891;28;20205;-65
2023/08/22 08:49:33;;;;;;;11.10;10.10;;;;;;;27.42;48.84;95241.19;5058095;28;20193;-65
2023/08/22 08:52:02;;;;;;;10.52;9.63;;;;;;;27.40;49.62;95229.50;5057713;28;20193;-65
2023/08/22 08:54:33;;;;;;;10.80;9.90;;;;;;;27.47;48.27;95221.53;5057819;28;20205;-65
2023/08/22 08:57:03;;;;;;;10.80;9.85;;;;;;;27.50;48.59;95231.94;5074569;28;20363;-65
2023/08/22 08:59:32;;;;;;;10.73;9.63;;;;;;;27.47;48.80;95232.88;5057588;28;20613;-65
2023/08/22 09:02:00;;;;;;;10.55;9.20;;;;;;;27.55;46.95;95224.91;5057260;28;20235;-65
2023/08/22 09:04:29;;;;;;;11.15;10.25;;;;;;;27.64;47.52;95227.81;5074696;28;20193;-65
2023/08/22 09:06:57;;;;;;;11.00;10.10;;;;;;;27.78;46.95;95232.19;5057938;28;20208;-65
2023/08/22 09:09:25;;;;;;;10.90;9.95;;;;;;;27.88;46.35;95218.84;5057477;28;20194;-65
2023/08/22 09:11:52;;;;;;;10.30;9.40;;;;;;;27.93;46.05;95219.06;5057618;28;20204;-65
2023/08/22 09:14:22;;;;;;;9.73;8.88;;;;;;;28.02;44.78;95219.09;5041400;28;20260;-65
2023/08/22 09:16:50;;;;;;;13.55;8.93;;;;;;;28.21;43.99;95213.53;5058107;28;20189;-65
2023/08/22 09:19:20;;;;;;;9.65;8.88;;;;;;;28.30;44.85;95211.53;5057363;28;20197;-65
2023/08/22 09:22:00;;;;;;;9.73;8.90;;;;;;;28.23;44.57;95208.19;5057418;28;20225;-65
2023/08/22 09:24:28;;;;;;;8.73;8.02;;;;;;;28.25;42.27;95202.81;5057693;28;20201;-65
2023/08/22 09:26:55;;;;;;;9.48;8.55;;;;;;;28.39;42.51;95204.34;5074126;28;20216;-65
2023/08/22 09:29:36;;;;;;;9.15;8.25;;;;;;;28.56;42.50;95202.84;5057564;28;20197;-65
2023/08/22 09:32:05;;;;;;;9.20;8.38;;;;;;;28.51;43.56;95201.41;5057972;28;20262;-65
2023/08/22 09:34:37;;;;;;;8.95;8.10;;;;;;;28.63;43.68;95205.38;5057730;28;20567;-65
2023/08/22 09:37:06;;;;;;;9.18;8.30;;;;;;;28.68;41.43;95201.13;5057494;28;20266;-65
2023/08/22 09:39:38;;;;;;;9.10;8.30;;;;;;;28.53;42.95;95195.25;5057412;28;20197;-65
2023/08/22 09:42:07;;;;;;;9.25;8.35;;;;;;;28.26;42.93;95195.91;5054419;28;20228;-65
2023/08/22 09:44:40;;;;;;;8.93;8.20;;;;;;;28.25;43.83;95188.66;5054091;28;20259;-65
2023/08/22 09:47:08;;;;;;;8.93;8.13;;;;;;;28.32;43.83;95185.53;5070432;28;20193;-65
2023/08/22 09:49:37;;;;;;;8.45;7.85;;;;;;;28.48;43.04;95187.38;5053977;28;20198;-65
2023/08/22 09:52:08;;;;;;;8.45;7.72;;;;;;;28.25;42.14;95189.47;5054599;28;20189;-65
2023/08/22 09:54:41;;;;;;;9.50;7.47;;;;;;;28.17;41.03;95182.47;5054073;28;20228;-65
2023/08/22 09:57:13;;;;;;;8.35;7.60;;;;;;;28.21;41.35;95171.78;5054033;28;20288;-65
2023/08/22 09:59:45;;;;;;;8.50;7.80;;;;;;;28.21;40.95;95171.00;5053580;28;20585;-65
2023/08/22 10:02:12;;;;;;;8.27;7.47;;;;;;;28.11;41.55;95169.41;5054132;28;20218;-65
2023/08/22 10:04:43;;;;;;;8.93;7.22;;;;;;;28.22;41.45;95170.53;5053554;28;20205;-65
2023/08/22 10:07:12;;;;;;;8.93;7.78;;;;;;;28.43;40.75;95168.94;5053991;28;20213;-65
2023/08/22 10:09:43;;;;;;;8.82;7.70;;;;;;;28.40;39.83;95158.50;5053072;28;20201;-65
2023/08/22 10:12:15;;;;;;;8.85;8.15;;;;;;;28.55;41.62;95155.88;5054209;28;20209;-65
2023/08/22 10:14:49;;;;;;;7.97;7.05;;;;;;;29.10;38.97;95153.13;5053815;28;20208;-65
2023/08/22 10:17:17;;;;;;;8.13;7.38;;;;;;;29.59;36.40;95152.19;5054311;28;20218;-65
2023/08/22 10:19:49;;;;;;;8.77;7.90;;;;;;;29.73;36.98;95148.69;5053368;28;20632;-65
2023/08/22 10:22:18;;;;;;;8.73;7.63;;;;;;;29.71;37.54;95141.91;5053775;28;20222;-65
2023/08/22 10:24:48;;;;;;;7.93;7.32;;;;;;;29.44;37.18;95145.53;5053972;28;20221;-65
2023/08/22 10:27:20;;;;;;;8.80;7.65;;;;;;;29.38;37.19;95141.78;5053373;28;20202;-65
2023/08/22 10:30:20;;;;;;;7.60;7.00;;;;;;;29.18;37.75;95139.41;5053199;28;20563;-65
2023/08/22 10:33:07;;;;;;;8.57;7.85;;;;;;;29.08;37.93;95141.44;5053836;28;20212;-65
2023/08/22 10:35:38;;;;;;;7.82;7.07;;;;;;;29.00;37.80;95137.34;5055079;28;20198;-65
2023/08/22 10:38:07;;;;;;;7.65;7.03;;;;;;;29.11;36.83;95137.66;5057424;28;20194;-65
2023/08/22 10:40:37;;;;;;;7.30;6.65;;;;;;;29.01;37.76;95133.25;5057219;28;20237;-65
2023/08/22 10:43:29;;;;;;;8.05;7.32;;;;;;;28.78;37.67;95134.63;5056936;28;20214;-65
2023/08/22 10:46:01;;;;;;;7.40;6.80;;;;;;;28.63;38.20;95137.28;5056874;28;20648;-65
2023/08/22 10:48:29;;;;;;;8.23;7.53;;;;;;;28.57;38.93;95132.69;5057269;28;20588;-65
2023/08/22 10:51:08;;;;;;;7.30;6.57;;;;;;;28.50;38.47;95126.06;5056747;28;20194;-65
2023/08/22 10:53:44;;;;;;;11.82;7.72;;;;;;;28.41;38.35;95131.72;5057053;28;20331;-65
2023/08/22 10:56:24;;;;;;;8.48;7.68;;;;;;;28.41;38.57;95128.09;5056729;28;20193;-65
2023/08/22 10:59:03;;;;;;;8.25;7.45;;;;;;;28.48;38.92;95124.97;5056823;28;20613;-65
2023/08/22 11:01:37;;;;;;;9.35;8.02;;;;;;;28.60;38.96;95120.41;5056545;28;20197;-65
2023/08/22 11:04:13;;;;;;;7.97;7.38;;;;;;;28.55;38.14;95128.28;5057699;28;20209;-65
2023/08/22 11:06:44;;;;;;;8.15;7.40;;;;;;;28.68;39.64;95119.63;5056301;28;20293;-65
2023/08/22 11:09:15;;;;;;;8.77;8.07;;;;;;;28.77;38.54;95127.38;5056796;28;20602;-65
2023/08/22 11:11:44;;;;;;;9.02;8.23;;;;;;;28.68;38.47;95130.97;5072939;28;20201;-65
2023/08/22 11:14:14;;;;;;;8.85;8.02;;;;;;;28.62;38.47;95132.09;5073091;28;20194;-65
2023/08/22 11:16:46;;;;;;;8.88;8.07;;;;;;;28.49;38.40;95135.03;5056307;28;20209;-65
2023/08/22 11:19:14;;;;;;;9.38;7.35;;;;;;;28.59;37.86;95128.13;5056950;28;20251;-65
2023/08/22 11:21:45;;;;;;;9.13;8.38;;;;;;;28.90;38.30;95130.06;5055968;28;20221;-65
2023/08/22 11:24:12;;;;;;;8.10;7.40;;;;;;;28.94;37.56;95122.16;5056937;28;20198;-65
2023/08/22 11:26:41;;;;;;;8.95;8.25;;;;;;;29.11;37.56;95123.47;5056181;28;20205;-65
2023/08/22 11:29:11;;;;;;;7.80;7.10;;;;;;;29.16;38.05;95120.03;5056230;28;20212;-65
2023/08/22 11:31:41;;;;;;;8.23;7.43;;;;;;;29.38;37.84;95117.00;5055883;28;20609;-65
2023/08/22 11:34:16;;;;;;;8.23;7.50;;;;;;;29.34;37.57;95118.41;5056440;28;20297;-65